Time;durP1;ratioP1;P1;durP2;ratioP2;P2;SDS_P1;SDS_P2;PMS_P1;PMS_P2;Temp;Humidity;BMP_temperature;BMP_pressure;BME280_temperature;BME280_humidity;BME280_pressure;Samples;Min_cycle;Max_cycle;Signal;HPM_P1;HPM_P2
2022/06/22 00:00:59;;;;;;;9.77;6.45;;;;;;;27.95;52.84;100361.03;4937833;29;20047;-80
2022/06/22 00:03:50;;;;;;;8.70;5.20;;;;;;;27.99;52.92;100360.91;4937325;29;20559;-81
2022/06/22 00:06:49;;;;;;;11.55;6.97;;;;;;;28.02;52.65;100360.84;4944241;29;20050;-82
2022/06/22 00:09:40;;;;;;;11.35;6.40;;;;;;;27.92;52.87;100352.75;4955367;29;20054;-81
2022/06/22 00:12:29;;;;;;;10.13;6.00;;;;;;;27.87;53.43;100347.72;4955675;29;20066;-81
2022/06/22 00:15:23;;;;;;;15.68;6.30;;;;;;;27.76;53.58;100347.22;4956133;29;20513;-81
2022/06/22 00:18:33;;;;;;;10.57;5.80;;;;;;;27.74;53.32;100333.69;4954477;28;20054;-82
2022/06/22 00:21:23;;;;;;;13.63;5.90;;;;;;;27.70;53.23;100327.41;4956333;28;20412;-82
2022/06/22 00:24:38;;;;;;;9.38;6.68;;;;;;;27.71;53.36;100322.59;4959203;28;20058;-81
2022/06/22 00:27:26;;;;;;;;;;;;;;;27.70;54.17;100321.81;4958155;29;20066;-81
2022/06/22 00:30:21;;;;;;;10.32;6.53;;;;;;;27.69;54.20;100325.84;4952872;29;19914;-80
2022/06/22 00:33:22;;;;;;;15.93;6.72;;;;;;;27.45;55.59;100327.28;4958130;28;20058;-81
2022/06/22 00:36:17;;;;;;;12.68;7.65;;;;;;;26.81;57.51;100349.19;4958321;28;20054;-81
2022/06/22 00:39:23;;;;;;;;;;;;;;;26.97;56.46;100353.25;4961740;28;20535;-81
2022/06/22 00:42:21;;;;;;;17.40;7.75;;;;;;;26.88;56.71;100350.25;4958552;29;19914;-81
2022/06/22 00:45:27;;;;;;;12.82;7.70;;;;;;;27.11;55.90;100333.34;4956757;28;20050;-81
2022/06/22 00:48:21;;;;;;;13.50;7.72;;;;;;;26.90;56.57;100337.47;4951573;28;20058;-81
2022/06/22 00:51:12;;;;;;;12.10;8.07;;;;;;;26.18;58.86;100339.44;4949306;29;20414;-81
2022/06/22 00:54:02;;;;;;;23.67;8.95;;;;;;;25.92;60.31;100338.38;4960689;28;20049;-81
2022/06/22 00:57:05;;;;;;;16.00;9.43;;;;;;;25.98;59.53;100331.09;4958736;28;20542;-80
2022/06/22 01:00:01;;;;;;;15.70;9.57;;;;;;;25.53;61.47;100334.34;4956343;28;20054;-80
2022/06/22 01:03:04;;;;;;;13.35;7.85;;;;;;;26.17;59.11;100332.28;4959214;28;20046;-80
2022/06/22 01:05:58;;;;;;;8.90;6.30;;;;;;;26.70;56.54;100347.88;4956953;28;20116;-81
2022/06/22 01:08:46;;;;;;;13.68;6.93;;;;;;;26.58;56.73;100340.97;4953232;28;20546;-81
2022/06/22 01:14:58;;;;;;;18.50;8.32;;;;;;;26.70;56.34;100339.50;4954178;29;20535;-81
2022/06/22 01:17:55;;;;;;;18.05;7.63;;;;;;;26.56;56.02;100346.19;4956695;28;20066;-80
2022/06/22 01:21:13;;;;;;;16.92;9.13;;;;;;;26.03;57.41;100338.16;4936778;29;20069;-81
2022/06/22 01:24:32;;;;;;;13.27;9.00;;;;;;;26.01;57.55;100340.63;4938364;29;20051;-81
2022/06/22 01:27:35;;;;;;;16.50;6.72;;;;;;;26.21;57.29;100336.56;4940781;29;20071;-81
2022/06/22 01:30:35;;;;;;;14.50;6.20;;;;;;;26.61;55.51;100342.91;4940231;29;20516;-81
2022/06/22 01:33:39;;;;;;;11.93;6.22;;;;;;;26.97;54.79;100328.13;4959701;28;20046;-81
2022/06/22 01:36:33;;;;;;;9.77;6.95;;;;;;;26.82;54.28;100324.84;4954085;29;20054;-81
2022/06/22 01:39:17;;;;;;;11.23;6.43;;;;;;;26.79;53.33;100345.25;4958194;28;20050;-82
2022/06/22 01:42:19;;;;;;;;;;;;;;;26.82;53.68;100338.78;4962399;28;20060;-82
2022/06/22 01:45:19;;;;;;;8.93;6.55;;;;;;;26.99;53.95;100334.03;4959101;28;19914;-81
2022/06/22 01:48:32;;;;;;;11.48;5.90;;;;;;;26.99;52.68;100346.00;4958370;28;20519;-82
2022/06/22 01:51:24;;;;;;;15.18;6.72;;;;;;;27.06;53.41;100343.03;4939082;29;20059;-81
2022/06/22 01:54:25;;;;;;;14.85;6.70;;;;;;;27.07;53.31;100338.25;4958460;28;20058;-81
2022/06/22 01:57:35;;;;;;;13.77;7.68;;;;;;;26.85;53.64;100335.16;4958785;28;20054;-81
2022/06/22 02:00:21;;;;;;;9.93;5.63;;;;;;;26.83;53.94;100334.78;4961167;28;20062;-81
2022/06/22 02:03:15;;;;;;;12.75;7.18;;;;;;;26.91;54.00;100329.88;4959478;28;20404;-82
2022/06/22 02:09:35;;;;;;;12.40;8.15;;;;;;;26.79;54.13;100334.09;4958627;28;20058;-82
2022/06/22 02:12:28;;;;;;;13.32;7.00;;;;;;;26.28;55.15;100325.31;4939285;29;20405;-82
2022/06/22 02:15:21;;;;;;;11.82;7.28;;;;;;;26.15;55.30;100327.16;4946390;29;20050;-81
2022/06/22 02:18:22;;;;;;;9.32;6.35;;;;;;;26.26;55.38;100315.81;4958847;28;20059;-82
2022/06/22 02:21:34;;;;;;;19.58;8.60;;;;;;;26.26;54.57;100304.66;4956874;28;20054;-81
2022/06/22 02:24:41;;;;;;;13.02;6.53;;;;;;;26.03;54.71;100308.28;4953409;28;20046;-81
2022/06/22 02:27:29;;;;;;;8.02;6.30;;;;;;;26.27;55.09;100312.56;4957632;28;20046;-81
2022/06/22 02:30:14;;;;;;;12.13;6.35;;;;;;;26.55;54.42;100315.94;4961210;28;20519;-82
2022/06/22 02:32:59;;;;;;;13.73;7.32;;;;;;;26.30;54.44;100319.31;4954398;29;20043;-81
2022/06/22 02:35:44;;;;;;;15.45;6.57;;;;;;;26.26;53.98;100322.16;4955757;29;20051;-80
2022/06/22 02:38:29;;;;;;;16.80;5.07;;;;;;;26.20;54.97;100323.88;4961194;28;20050;-81
2022/06/22 02:44:35;;;;;;;10.95;5.93;;;;;;;26.13;53.78;100340.72;4956569;28;20062;-81
2022/06/22 02:47:22;;;;;;;14.20;6.60;;;;;;;26.18;53.64;100343.00;4960168;23;20073;-68
2022/06/22 02:50:28;;;;;;;12.32;7.00;;;;;;;25.90;54.81;100352.75;4950994;28;20043;-66
2022/06/22 02:53:24;;;;;;;8.48;6.13;;;;;;;26.05;54.85;100358.03;4947072;29;20050;-68
2022/06/22 02:56:16;;;;;;;8.73;6.78;;;;;;;26.24;53.83;100368.41;4953489;28;20813;-65
2022/06/22 02:59:01;;;;;;;36.63;11.02;;;;;;;25.76;54.75;100371.72;4953746;28;20545;-68
2022/06/22 03:01:46;;;;;;;79.72;16.92;;;;;;;26.23;54.91;100378.78;4954929;29;20035;-67
2022/06/22 03:04:32;;;;;;;29.67;8.05;;;;;;;26.08;55.14;100390.63;4948168;29;20043;-67
2022/06/22 03:07:18;;;;;;;15.57;6.30;;;;;;;26.14;53.86;100392.47;4934571;29;20090;-66
2022/06/22 03:10:06;;;;;;;9.57;5.43;;;;;;;26.31;54.28;100394.13;4953930;29;20410;-72
2022/06/22 03:12:52;;;;;;;14.32;5.82;;;;;;;26.58;53.10;100393.16;4950853;29;20047;-71
2022/06/22 03:15:37;;;;;;;14.70;6.30;;;;;;;26.71;52.66;100391.31;4950855;29;20529;-68
2022/06/22 03:18:26;;;;;;;12.80;5.35;;;;;;;26.88;52.09;100384.53;4952364;28;20370;-72
2022/06/22 03:21:14;;;;;;;11.63;5.63;;;;;;;27.07;52.01;100380.88;4953051;29;20050;-69
2022/06/22 03:24:17;;;;;;;9.82;5.68;;;;;;;26.93;51.77;100367.28;4953453;29;20054;-72
2022/06/22 03:27:11;;;;;;;10.63;4.40;;;;;;;27.09;51.67;100366.50;4952424;28;20050;-71
2022/06/22 03:30:01;;;;;;;11.70;5.28;;;;;;;27.18;51.69;100364.66;4953251;29;20406;-71
2022/06/22 03:33:10;;;;;;;10.70;5.60;;;;;;;27.08;51.53;100353.75;4953492;29;20050;-71
2022/06/22 03:36:02;;;;;;;8.75;5.95;;;;;;;26.92;51.71;100345.41;4940422;29;20056;-70
2022/06/22 03:38:58;;;;;;;12.70;6.05;;;;;;;26.62;53.29;100344.44;4952777;29;20054;-72
2022/06/22 03:41:49;;;;;;;8.02;5.60;;;;;;;26.78;52.58;100358.44;4953117;29;20066;-72
2022/06/22 03:44:49;;;;;;;18.33;7.90;;;;;;;26.81;52.38;100351.19;4953107;29;20047;-72
2022/06/22 03:47:36;;;;;;;18.00;7.47;;;;;;;26.80;52.45;100335.69;4951929;28;20054;-71
2022/06/22 03:50:30;;;;;;;15.20;7.57;;;;;;;26.63;53.13;100348.03;4953174;28;20078;-72
2022/06/22 03:53:24;;;;;;;12.20;7.17;;;;;;;26.59;53.15;100344.53;4953231;28;20525;-70
2022/06/22 03:56:14;;;;;;;11.18;6.95;;;;;;;26.78;52.82;100349.25;4943812;28;20074;-72
2022/06/22 03:59:03;;;;;;;12.80;8.90;;;;;;;26.77;53.09;100339.31;4951919;29;20062;-71
2022/06/22 04:01:48;;;;;;;11.30;6.60;;;;;;;26.75;53.20;100350.16;4952870;29;20050;-71
2022/06/22 04:04:33;;;;;;;12.80;6.15;;;;;;;27.03;52.61;100366.22;4952873;28;20074;-72
2022/06/22 04:07:18;;;;;;;18.83;9.55;;;;;;;27.10;52.06;100352.09;4951861;29;20065;-69
2022/06/22 04:10:05;;;;;;;13.30;6.43;;;;;;;27.08;52.23;100348.94;4952938;29;20086;-70
2022/06/22 04:12:52;;;;;;;14.98;8.23;;;;;;;27.00;52.66;100349.56;4937649;29;20423;-72
2022/06/22 04:15:54;;;;;;;22.77;8.63;;;;;;;26.88;53.21;100339.88;4939333;29;20124;-69
2022/06/22 04:18:54;;;;;;;8.10;5.32;;;;;;;26.90;53.22;100345.03;4946107;28;20058;-72
2022/06/22 04:21:48;;;;;;;25.25;8.75;;;;;;;26.86;53.10;100335.94;4945874;28;20062;-71
2022/06/22 04:24:44;;;;;;;10.65;6.15;;;;;;;26.96;53.25;100332.13;4938705;29;20050;-71
2022/06/22 04:27:35;;;;;;;9.13;5.68;;;;;;;27.13;52.63;100339.25;4942626;29;20059;-72
2022/06/22 04:30:28;;;;;;;13.88;7.13;;;;;;;27.26;52.48;100342.16;4933605;29;20051;-70
2022/06/22 04:33:22;;;;;;;14.02;7.57;;;;;;;27.33;52.11;100341.97;4933392;29;20055;-72
2022/06/22 04:36:25;;;;;;;17.40;7.93;;;;;;;27.38;52.15;100349.81;4933198;29;20063;-71
2022/06/22 04:39:23;;;;;;;24.10;9.25;;;;;;;27.31;53.01;100345.19;4941368;28;20069;-70
2022/06/22 04:42:09;;;;;;;29.02;8.38;;;;;;;27.34;52.69;100349.09;4951713;29;20042;-72
2022/06/22 04:44:54;;;;;;;28.70;8.02;;;;;;;27.37;52.86;100357.41;4947706;29;20046;-72
2022/06/22 04:47:39;;;;;;;12.13;7.55;;;;;;;27.39;52.86;100345.78;4950953;28;20066;-70
2022/06/22 04:50:25;;;;;;;17.35;7.85;;;;;;;27.43;52.93;100355.63;4950126;29;20414;-70
2022/06/22 04:53:33;;;;;;;17.10;8.30;;;;;;;27.39;53.58;100351.38;4950606;29;20062;-73
2022/06/22 04:56:27;;;;;;;12.27;8.52;;;;;;;27.34;53.53;100365.88;4952521;29;20050;-71
2022/06/22 04:59:15;;;;;;;16.00;9.00;;;;;;;27.31;53.99;100361.16;4943185;29;20050;-72
2022/06/22 05:02:09;;;;;;;15.55;9.00;;;;;;;27.19;54.69;100369.03;4948014;29;20062;-69
2022/06/22 05:05:02;;;;;;;;;;;;;;;27.21;54.47;100372.19;4952163;29;20055;-69
2022/06/22 05:08:03;;;;;;;22.38;8.85;;;;;;;27.21;54.32;100374.19;4952393;28;19927;-71
2022/06/22 05:11:13;;;;;;;27.00;8.57;;;;;;;27.24;52.86;100385.25;4956137;29;20120;-69
2022/06/22 05:13:59;;;;;;;15.85;8.38;;;;;;;27.03;53.49;100391.34;4948781;29;20070;-72
2022/06/22 05:16:50;;;;;;;12.90;7.15;;;;;;;27.02;53.47;100392.56;4942256;29;20058;-70
2022/06/22 05:19:51;;;;;;;11.65;7.00;;;;;;;27.11;53.33;100397.56;4946983;29;20066;-70
2022/06/22 05:22:36;;;;;;;13.30;7.00;;;;;;;27.09;53.11;100398.00;4953457;28;20046;-71
2022/06/22 05:25:21;;;;;;;18.50;7.13;;;;;;;27.02;53.46;100405.75;4956260;28;20046;-72
2022/06/22 05:28:13;;;;;;;14.45;7.05;;;;;;;26.96;53.79;100408.28;4955160;29;20050;-72
2022/06/22 05:31:08;;;;;;;21.02;7.32;;;;;;;26.95;53.73;100411.50;4955531;29;20045;-71
2022/06/22 05:34:07;;;;;;;13.57;6.95;;;;;;;26.94;54.18;100415.50;4954334;29;20058;-72
2022/06/22 05:37:03;;;;;;;21.38;7.07;;;;;;;27.03;53.86;100424.84;4936334;29;20055;-71
2022/06/22 05:39:49;;;;;;;12.75;6.38;;;;;;;27.06;53.63;100428.78;4935804;29;20434;-71
2022/06/22 05:42:34;;;;;;;19.55;6.50;;;;;;;27.13;53.29;100434.19;4951754;28;20391;-71
2022/06/22 05:45:25;;;;;;;14.52;7.30;;;;;;;27.20;52.94;100446.00;4957976;28;20062;-70
2022/06/22 05:48:15;;;;;;;24.90;7.70;;;;;;;27.18;52.83;100442.84;4942982;29;20062;-72
2022/06/22 05:51:11;;;;;;;23.60;7.85;;;;;;;27.01;53.41;100444.06;4954255;29;20070;-72
2022/06/22 05:54:04;;;;;;;15.63;7.90;;;;;;;27.00;53.83;100462.03;4955166;29;20050;-70
2022/06/22 05:56:57;;;;;;;19.42;8.30;;;;;;;26.93;54.40;100470.53;4937217;29;20231;-69
2022/06/22 05:59:54;;;;;;;17.55;7.93;;;;;;;26.79;54.92;100474.41;4951872;29;20058;-70
2022/06/22 06:03:07;;;;;;;10.98;7.25;;;;;;;26.85;54.95;100468.31;4948625;29;20541;-70
2022/06/22 06:06:00;;;;;;;11.43;7.50;;;;;;;26.92;54.95;100455.00;4954028;28;20062;-68
2022/06/22 06:08:49;;;;;;;11.05;7.30;;;;;;;26.93;54.89;100458.59;4954018;29;20050;-68
2022/06/22 06:11:45;;;;;;;15.70;7.97;;;;;;;27.18;54.44;100467.19;4935447;29;20066;-70
2022/06/22 06:14:33;;;;;;;15.35;7.95;;;;;;;27.09;54.34;100478.94;4936257;29;20510;-70
2022/06/22 06:17:30;;;;;;;19.20;8.60;;;;;;;27.06;54.07;100488.19;4960836;28;20279;-70
2022/06/22 06:20:38;;;;;;;14.73;7.32;;;;;;;27.27;53.55;100498.09;4949253;28;20054;-70
2022/06/22 06:23:35;;;;;;;16.90;7.88;;;;;;;27.26;53.18;100492.94;4929485;28;21348;-68
2022/06/22 06:30:03;;;;;;;14.70;8.10;;;;;;;27.30;53.05;100480.47;4951754;29;20521;-70
2022/06/22 06:33:05;;;;;;;20.83;7.80;;;;;;;27.31;53.21;100492.41;4954567;29;20054;-69
2022/06/22 06:35:55;;;;;;;17.67;6.75;;;;;;;27.34;53.00;100497.13;4955069;29;20050;-71
2022/06/22 06:38:48;;;;;;;15.68;6.18;;;;;;;27.43;53.20;100509.25;4954684;29;20070;-70
2022/06/22 06:41:40;;;;;;;15.52;8.88;;;;;;;27.45;52.49;100500.47;4954828;29;20066;-70
2022/06/22 06:44:25;;;;;;;14.60;7.18;;;;;;;27.41;52.22;100500.56;4955004;29;20411;-71
2022/06/22 06:47:19;;;;;;;25.23;7.78;;;;;;;27.44;52.12;100502.47;4954284;29;20054;-68
2022/06/22 06:50:16;;;;;;;17.70;7.80;;;;;;;27.47;51.99;100492.44;4954607;29;20078;-70
2022/06/22 06:53:42;;;;;;;16.48;8.18;;;;;;;27.55;52.70;100491.06;4957850;28;20050;-70
2022/06/22 06:56:34;;;;;;;16.88;9.55;;;;;;;27.51;52.91;100493.16;4955269;29;20058;-70
2022/06/22 06:59:25;;;;;;;18.17;9.48;;;;;;;27.58;52.74;100499.34;4954329;29;20050;-71
2022/06/22 07:02:19;;;;;;;26.63;8.45;;;;;;;27.60;52.49;100504.50;4954731;29;20294;-69
2022/06/22 07:05:07;;;;;;;11.93;7.72;;;;;;;27.60;52.25;100501.72;4954748;29;20066;-71
2022/06/22 07:07:54;;;;;;;17.98;7.88;;;;;;;27.62;52.37;100504.88;4954167;29;20058;-70
2022/06/22 07:10:47;;;;;;;10.13;7.22;;;;;;;27.74;51.78;100506.94;4954574;29;20066;-68
2022/06/22 07:13:45;;;;;;;11.15;7.25;;;;;;;27.82;51.45;100504.78;4954585;29;20513;-70
2022/06/22 07:16:30;;;;;;;13.35;6.03;;;;;;;27.88;51.85;100514.19;4954512;29;20062;-70
2022/06/22 07:19:21;;;;;;;11.45;7.07;;;;;;;27.92;51.45;100515.69;4953902;29;20050;-70
2022/06/22 07:22:11;;;;;;;21.75;7.55;;;;;;;27.96;51.02;100526.75;4954319;29;20055;-70
2022/06/22 07:25:21;;;;;;;10.40;5.80;;;;;;;28.00;51.24;100530.25;4954682;29;20070;-68
2022/06/22 07:28:25;;;;;;;10.07;5.15;;;;;;;27.99;51.16;100543.44;4953884;29;20050;-70
2022/06/22 07:31:30;;;;;;;12.95;6.88;;;;;;;28.01;51.68;100534.63;4953755;28;20530;-68
2022/06/22 07:34:23;;;;;;;14.68;6.35;;;;;;;28.00;51.28;100535.84;4953891;29;20046;-68
2022/06/22 07:37:25;;;;;;;7.93;5.38;;;;;;;27.91;51.33;100536.47;4953666;29;20050;-67
2022/06/22 07:40:20;;;;;;;9.80;6.13;;;;;;;27.96;51.47;100535.16;4953897;29;20403;-70
2022/06/22 07:43:11;;;;;;;8.95;6.20;;;;;;;27.94;51.09;100541.16;4953652;29;20046;-69
2022/06/22 07:45:56;;;;;;;12.70;5.53;;;;;;;27.92;51.50;100537.25;4953680;29;20050;-68
2022/06/22 07:48:46;;;;;;;10.43;5.93;;;;;;;27.94;51.13;100535.56;4953807;29;20070;-70
2022/06/22 07:51:33;;;;;;;13.38;5.97;;;;;;;27.99;50.95;100535.03;4953410;29;20399;-69
2022/06/22 07:54:40;;;;;;;17.70;6.95;;;;;;;27.98;51.82;100532.72;4954173;29;20058;-69
2022/06/22 07:57:31;;;;;;;14.88;6.78;;;;;;;28.00;52.41;100533.81;4953495;29;20061;-69
2022/06/22 08:00:21;;;;;;;8.40;5.38;;;;;;;27.99;51.74;100523.06;4953659;29;20050;-69
2022/06/22 08:03:32;;;;;;;14.57;6.63;;;;;;;27.97;51.62;100515.16;4953293;29;20050;-67
2022/06/22 08:06:32;;;;;;;9.13;5.38;;;;;;;27.87;51.72;100482.66;4956489;28;20046;-69
2022/06/22 08:09:36;;;;;;;11.32;5.78;;;;;;;27.70;52.83;100472.72;4952410;28;20536;-69
2022/06/22 08:12:25;;;;;;;22.30;6.72;;;;;;;27.58;53.23;100453.88;4954150;29;20076;-67
2022/06/22 08:15:16;;;;;;;23.92;8.38;;;;;;;27.43;54.76;100431.06;4953781;28;20054;-66
2022/06/22 08:18:01;;;;;;;24.33;7.05;;;;;;;27.42;54.58;100425.94;4953057;29;20407;-67
2022/06/22 08:20:51;;;;;;;16.92;6.30;;;;;;;27.52;54.46;100439.66;4953583;29;20062;-66
2022/06/22 08:23:36;;;;;;;17.65;5.75;;;;;;;27.44;54.45;100426.25;4953204;29;20046;-63
2022/06/22 08:26:31;;;;;;;19.35;5.65;;;;;;;27.41;54.08;100410.38;4953221;29;20041;-66
2022/06/22 08:29:19;;;;;;;18.43;5.53;;;;;;;27.32;54.72;100393.47;4953255;29;20054;-66
2022/06/22 08:32:16;;;;;;;12.60;4.63;;;;;;;27.29;54.53;100385.94;4947484;29;20674;-65
2022/06/22 08:35:17;;;;;;;13.10;4.28;;;;;;;27.30;54.07;100381.94;4945287;29;20438;-64
2022/06/22 08:38:07;;;;;;;27.58;6.25;;;;;;;27.43;53.53;100388.41;4942463;28;20427;-65
2022/06/22 08:41:31;;;;;;;23.02;4.05;;;;;;;27.48;53.26;100397.00;4950428;29;20058;-64
2022/06/22 08:44:50;;;;;;;22.40;4.50;;;;;;;27.56;53.02;100417.22;4955392;28;20046;-66
2022/06/22 08:48:19;;;;;;;16.70;4.60;;;;;;;27.66;52.55;100430.13;4947516;23;20074;-63
2022/06/22 08:51:19;;;;;;;13.52;3.80;;;;;;;27.70;52.79;100439.19;4899442;29;20055;-63
2022/06/22 08:54:29;;;;;;;15.38;4.90;;;;;;;27.72;52.31;100419.97;4902141;29;20054;-63
2022/06/22 08:57:38;;;;;;;13.80;4.63;;;;;;;27.79;52.55;100402.22;4925762;29;20059;-63
2022/06/22 09:00:23;;;;;;;18.02;4.90;;;;;;;27.74;52.29;100400.75;4918019;29;20058;-63
2022/06/22 09:03:38;;;;;;;16.48;5.13;;;;;;;27.67;52.92;100408.53;4921204;29;20047;-63
2022/06/22 09:06:22;;;;;;;18.83;6.00;;;;;;;27.69;53.30;100398.47;4931666;29;20050;-63
2022/06/22 09:09:46;;;;;;;15.23;5.60;;;;;;;27.65;53.03;100358.69;4936615;29;20494;-63
2022/06/22 09:13:15;;;;;;;9.02;5.05;;;;;;;27.81;51.54;100372.63;4926848;29;20051;-63
2022/06/22 09:16:36;;;;;;;16.95;5.47;;;;;;;27.77;53.72;100371.16;4907645;29;20063;-63
2022/06/22 09:19:24;;;;;;;13.45;6.47;;;;;;;27.79;53.25;100380.66;4916287;29;20055;-63
2022/06/22 09:22:26;;;;;;;18.63;6.05;;;;;;;27.84;52.56;100388.50;4919339;29;20051;-63
2022/06/22 09:25:29;;;;;;;16.05;5.07;;;;;;;27.74;53.27;100391.56;4925522;29;20055;-63
2022/06/22 09:28:26;;;;;;;23.00;4.70;;;;;;;27.76;53.04;100386.34;4914371;29;20058;-63
2022/06/22 09:31:18;;;;;;;24.50;6.78;;;;;;;27.78;53.18;100381.91;4905477;29;20051;-63
2022/06/22 09:34:40;;;;;;;28.40;6.00;;;;;;;27.75;53.33;100382.75;4898485;29;20055;-63
2022/06/22 09:37:53;;;;;;;29.83;7.93;;;;;;;27.81;52.16;100388.59;4902826;29;20048;-63
2022/06/22 09:41:19;;;;;;;45.53;7.50;;;;;;;27.84;52.81;100380.09;4909130;29;20407;-63
2022/06/22 09:44:27;;;;;;;18.10;5.20;;;;;;;27.92;52.76;100380.72;4901049;29;20055;-63
2022/06/22 09:47:47;;;;;;;12.38;4.68;;;;;;;27.90;52.66;100385.94;4897984;29;20048;-63
2022/06/22 09:50:55;;;;;;;21.42;5.32;;;;;;;27.95;52.55;100393.78;4911908;29;20063;-63
2022/06/22 09:53:50;;;;;;;10.23;4.43;;;;;;;27.89;52.53;100407.53;4906239;29;20407;-63
2022/06/22 09:57:19;;;;;;;22.70;6.10;;;;;;;27.88;52.45;100421.97;4909339;29;20133;-63
2022/06/22 10:00:57;;;;;;;23.08;5.63;;;;;;;27.90;52.08;100420.28;4916281;29;20055;-62
2022/06/22 10:03:45;;;;;;;17.92;6.72;;;;;;;27.97;51.84;100425.69;4922619;29;20046;-62
2022/06/22 10:07:15;;;;;;;14.32;6.00;;;;;;;27.97;52.20;100428.47;4909882;29;20515;-62
2022/06/22 10:10:31;;;;;;;20.00;6.90;;;;;;;28.00;51.82;100430.38;4908115;29;20051;-62
2022/06/22 10:13:37;;;;;;;32.00;7.55;;;;;;;27.99;52.23;100428.03;4903773;29;20504;-62
2022/06/22 10:16:34;;;;;;;13.23;6.18;;;;;;;28.01;52.57;100459.91;4902773;29;20071;-62
2022/06/22 10:19:47;;;;;;;18.27;5.68;;;;;;;28.05;52.68;100484.97;4911737;29;20051;-62
2022/06/22 10:22:48;;;;;;;12.75;5.40;;;;;;;28.02;52.02;100519.41;4931151;29;20440;-63
2022/06/22 10:25:50;;;;;;;16.25;5.28;;;;;;;27.98;52.08;100504.75;4914271;29;20046;-62
2022/06/22 10:29:02;;;;;;;17.77;5.32;;;;;;;27.99;52.02;100486.72;4911649;29;20060;-62
2022/06/22 10:32:25;;;;;;;14.18;5.25;;;;;;;28.01;51.79;100459.91;4912968;29;20047;-62
2022/06/22 10:35:22;;;;;;;20.55;5.57;;;;;;;28.13;51.53;100450.06;4903935;29;20052;-63
2022/06/22 10:38:21;;;;;;;18.20;5.93;;;;;;;28.19;51.22;100433.53;4901993;29;20055;-62
2022/06/22 10:45:12;;;;;;;12.82;4.57;;;;;;;28.36;50.36;100402.22;4928730;29;20411;-63
2022/06/22 10:48:04;;;;;;;16.77;6.00;;;;;;;28.49;50.17;100393.88;4913312;29;20052;-62
2022/06/22 10:51:03;;;;;;;18.50;4.97;;;;;;;28.50;50.13;100387.81;4922727;29;20059;-62
2022/06/22 10:54:05;;;;;;;20.98;5.57;;;;;;;28.50;50.30;100385.00;4896940;29;20055;-62
2022/06/22 10:57:08;;;;;;;27.17;5.40;;;;;;;28.35;51.53;100369.09;4896843;29;20048;-63
2022/06/22 11:00:27;;;;;;;22.08;8.23;;;;;;;28.29;51.67;100368.09;4905443;29;20051;-62
2022/06/22 11:03:33;;;;;;;21.67;6.40;;;;;;;28.27;51.57;100381.72;4916218;29;20403;-62
2022/06/22 11:06:54;;;;;;;18.95;7.15;;;;;;;28.32;51.55;100365.19;4920906;29;20051;-62
2022/06/22 11:10:21;;;;;;;17.02;5.25;;;;;;;28.41;51.05;100370.13;4923121;29;20230;-62
2022/06/22 11:13:28;;;;;;;14.65;5.00;;;;;;;28.39;50.56;100378.94;4934528;29;20051;-62
2022/06/22 11:16:50;;;;;;;16.98;5.35;;;;;;;28.44;49.73;100386.78;4934413;29;20505;-62
2022/06/22 11:20:03;;;;;;;15.75;5.95;;;;;;;28.60;49.57;100385.16;4896523;29;20445;-62
2022/06/22 11:23:00;;;;;;;12.13;4.88;;;;;;;28.66;48.45;100402.94;4914913;29;20043;-63
2022/06/22 11:33:12;;;;;;;14.00;4.63;;;;;;;28.69;48.77;100416.06;4896035;29;20063;-62
2022/06/22 11:36:11;;;;;;;12.68;6.88;;;;;;;28.72;47.96;100417.97;4895889;29;20052;-63
2022/06/22 11:38:59;;;;;;;17.15;5.35;;;;;;;28.62;48.75;100421.84;4895190;29;20068;-62
2022/06/22 11:41:44;;;;;;;15.05;6.28;;;;;;;28.63;48.44;100435.41;4895944;29;20048;-62
2022/06/22 11:48:06;;;;;;;17.27;5.28;;;;;;;28.73;48.42;100408.34;4930059;29;20047;-63
2022/06/22 11:51:17;;;;;;;8.85;4.15;;;;;;;28.91;46.19;100395.34;4911917;29;20052;-62
2022/06/22 11:54:05;;;;;;;17.92;5.82;;;;;;;29.00;46.40;100400.31;4907487;29;20051;-63
2022/06/22 11:56:56;;;;;;;16.05;6.57;;;;;;;29.17;45.97;100417.75;4928229;29;20067;-62
2022/06/22 11:59:59;;;;;;;10.80;5.72;;;;;;;29.40;45.65;100416.63;4929998;29;20055;-62
2022/06/22 12:03:06;;;;;;;18.55;6.53;;;;;;;29.33;46.95;100417.66;4925924;29;20047;-67
2022/06/22 12:06:05;;;;;;;13.73;6.00;;;;;;;29.51;45.54;100417.81;4904978;29;20043;-67
2022/06/22 12:08:53;;;;;;;12.05;5.82;;;;;;;29.50;45.85;100416.28;4904811;29;20040;-66
2022/06/22 12:11:44;;;;;;;16.08;7.18;;;;;;;29.48;45.92;100415.94;4901097;29;20047;-66
2022/06/22 12:15:07;;;;;;;19.50;5.60;;;;;;;29.50;46.12;100409.88;4898820;29;20067;-66
2022/06/22 12:18:18;;;;;;;11.13;6.90;;;;;;;29.47;45.79;100407.97;4894752;29;20048;-66
2022/06/22 12:21:21;;;;;;;18.33;6.10;;;;;;;29.34;45.91;100408.00;4912270;29;20047;-64
2022/06/22 12:24:21;;;;;;;15.52;7.13;;;;;;;29.25;45.98;100411.47;4923244;29;20085;-64
2022/06/22 12:27:34;;;;;;;14.68;6.57;;;;;;;29.25;46.33;100419.09;4933369;29;20050;-64
2022/06/22 12:30:22;;;;;;;14.70;6.57;;;;;;;29.19;46.44;100418.09;4929852;29;20070;-64
2022/06/22 12:33:25;;;;;;;68.50;8.80;;;;;;;29.13;46.17;100422.69;4924735;29;20051;-62
2022/06/22 12:36:18;;;;;;;12.00;5.18;;;;;;;29.20;45.99;100423.25;4904729;29;20055;-63
2022/06/22 12:39:15;;;;;;;25.88;5.50;;;;;;;29.28;44.07;100420.97;4912979;29;20044;-63
2022/06/22 12:42:35;;;;;;;11.82;4.72;;;;;;;29.46;44.70;100421.19;4900913;29;20047;-63
2022/06/22 12:45:30;;;;;;;10.15;4.70;;;;;;;29.45;45.06;100414.03;4904096;29;20520;-63
2022/06/22 12:48:38;;;;;;;16.10;5.10;;;;;;;29.46;45.32;100406.44;4913096;29;20043;-63
2022/06/22 12:51:41;;;;;;;10.07;4.30;;;;;;;29.45;44.09;100402.84;4912037;29;20527;-63
2022/06/22 12:54:32;;;;;;;12.68;4.82;;;;;;;29.60;42.86;100398.31;4914546;29;20392;-63
2022/06/22 12:57:23;;;;;;;13.38;3.75;;;;;;;29.65;43.67;100397.72;4912822;29;20546;-63
2022/06/22 13:00:14;;;;;;;8.35;3.67;;;;;;;29.68;42.84;100390.41;4925719;29;20047;-62
2022/06/22 13:03:00;;;;;;;13.35;3.50;;;;;;;29.60;43.51;100392.72;4931767;29;20515;-63
2022/06/22 13:05:45;;;;;;;17.98;4.53;;;;;;;29.68;42.41;100399.63;4932678;29;20045;-63
2022/06/22 13:08:31;;;;;;;7.90;3.25;;;;;;;29.68;41.76;100399.63;4918419;29;20047;-63
2022/06/22 13:11:22;;;;;;;9.52;3.58;;;;;;;29.55;43.59;100406.50;4923285;29;20047;-63
2022/06/22 13:14:20;;;;;;;10.70;3.65;;;;;;;29.54;42.91;100402.13;4918064;29;20059;-63
2022/06/22 13:17:30;;;;;;;22.95;5.05;;;;;;;29.60;42.03;100408.75;4936290;29;20051;-63
2022/06/22 13:20:32;;;;;;;7.80;3.85;;;;;;;29.48;42.73;100396.31;4931892;29;20071;-63
2022/06/22 13:23:47;;;;;;;9.50;3.55;;;;;;;29.52;43.67;100408.19;4922026;29;20114;-63
2022/06/22 13:26:54;;;;;;;12.50;3.85;;;;;;;29.36;44.29;100405.53;4927971;29;20051;-63
2022/06/22 13:30:03;;;;;;;9.82;3.45;;;;;;;29.37;44.71;100407.09;4934709;29;20058;-63
2022/06/22 13:33:01;;;;;;;9.43;3.17;;;;;;;29.35;44.36;100408.81;4915954;29;20070;-63
2022/06/22 13:35:53;;;;;;;12.27;3.53;;;;;;;29.31;44.30;100398.47;4932204;29;20058;-63
2022/06/22 13:39:01;;;;;;;8.82;3.28;;;;;;;29.32;44.31;100399.25;4920599;29;20071;-63
2022/06/22 13:42:05;;;;;;;9.45;3.70;;;;;;;29.31;44.47;100397.69;4933619;29;20059;-63
2022/06/22 13:45:17;;;;;;;4.60;3.13;;;;;;;29.31;44.14;100406.09;4936381;29;20051;-63
2022/06/22 13:48:08;;;;;;;11.25;4.15;;;;;;;29.26;44.66;100413.03;4935808;29;20050;-63
2022/06/22 13:51:21;;;;;;;10.98;3.55;;;;;;;29.18;44.29;100419.31;4932653;29;20058;-63
2022/06/22 13:54:11;;;;;;;15.48;4.00;;;;;;;29.31;43.76;100417.31;4920461;29;20051;-63
2022/06/22 13:57:19;;;;;;;12.43;3.40;;;;;;;29.46;43.01;100421.19;4934092;29;20051;-63
2022/06/22 14:00:43;;;;;;;10.98;3.60;;;;;;;29.57;42.78;100409.63;4935659;29;20059;-63
2022/06/22 14:03:57;;;;;;;18.13;4.30;;;;;;;29.52;42.93;100413.00;4936223;29;20051;-63
2022/06/22 14:06:59;;;;;;;26.30;4.93;;;;;;;29.49;43.22;100413.91;4920898;29;20056;-63
2022/06/22 14:09:57;;;;;;;10.57;3.35;;;;;;;29.27;44.28;100408.22;4921555;28;20056;-63